createdAt,value
2023-02-24T00:01:25.008Z,2.60
2023-02-24T00:03:29.122Z,3.15
2023-02-24T00:05:36.597Z,3.55
2023-02-24T00:07:40.631Z,2.67
2023-02-24T00:09:45.465Z,2.85
2023-02-24T00:11:55.424Z,3.30
2023-02-24T00:13:59.900Z,3.47
2023-02-24T00:16:06.098Z,3.55
2023-02-24T00:18:10.474Z,2.92
2023-02-24T00:20:16.451Z,3.00
2023-02-24T00:22:20.474Z,2.85
2023-02-24T00:24:25.323Z,3.00
2023-02-24T00:26:30.129Z,4.10
2023-02-24T00:28:35.556Z,3.03
2023-02-24T00:30:39.938Z,2.72
2023-02-24T00:32:44.024Z,2.92
2023-02-24T00:34:49.615Z,3.13
2023-02-24T00:36:53.605Z,2.80
2023-02-24T00:38:58.518Z,2.88
2023-02-24T00:41:04.008Z,2.75
2023-02-24T00:43:08.865Z,2.80
2023-02-24T00:45:16.671Z,2.97
2023-02-24T00:47:22.417Z,2.08
2023-02-24T00:49:26.451Z,3.20
2023-02-24T00:51:30.831Z,2.72
2023-02-24T00:53:34.860Z,2.75
2023-02-24T00:55:38.845Z,2.97
2023-02-24T00:57:42.904Z,2.55
2023-02-24T00:59:48.440Z,3.05
2023-02-24T01:01:54.867Z,3.10
2023-02-24T01:03:59.962Z,3.00
2023-02-24T01:06:04.293Z,3.20
2023-02-24T01:08:08.275Z,2.70
2023-02-24T01:10:13.121Z,2.80
2023-02-24T01:12:33.935Z,2.95
2023-02-24T01:14:39.692Z,3.13
2023-02-24T01:16:44.645Z,2.95
2023-02-24T01:18:50.035Z,2.72
2023-02-24T01:20:54.137Z,3.25
2023-02-24T01:22:58.632Z,3.03
2023-02-24T01:25:02.762Z,2.78
2023-02-24T01:27:06.904Z,2.60
2023-02-24T01:29:12.459Z,2.75
2023-02-24T01:31:18.379Z,3.78
2023-02-24T01:33:23.057Z,2.78
2023-02-24T01:35:28.469Z,2.42
2023-02-24T01:37:32.924Z,2.60
2023-02-24T01:39:37.670Z,2.97
2023-02-24T01:41:43.780Z,2.45
2023-02-24T01:44:01.859Z,3.05
2023-02-24T01:46:06.536Z,2.85
2023-02-24T01:48:10.971Z,2.83
2023-02-24T01:50:16.126Z,2.38
2023-02-24T01:52:24.150Z,2.83
2023-02-24T01:54:29.638Z,2.95
2023-02-24T01:56:33.774Z,3.15
2023-02-24T01:58:37.959Z,2.65
2023-02-24T02:00:47.630Z,2.85
2023-02-24T02:02:52.878Z,3.00
2023-02-24T02:04:58.802Z,2.75
2023-02-24T02:07:03.934Z,2.65
2023-02-24T02:09:10.839Z,2.63
2023-02-24T02:11:22.541Z,2.95
2023-02-24T02:13:28.223Z,2.60
2023-02-24T02:15:32.331Z,2.35
2023-02-24T02:17:41.814Z,2.85
2023-02-24T02:20:15.404Z,3.05
2023-02-24T02:23:01.930Z,2.38
2023-02-24T02:25:10.521Z,2.10
2023-02-24T02:27:57.983Z,2.75
2023-02-24T02:30:33.885Z,2.75
2023-02-24T02:33:01.846Z,3.50
2023-02-24T02:35:09.214Z,2.22
2023-02-24T02:37:15.825Z,2.17
2023-02-24T02:39:26.708Z,2.72
2023-02-24T02:43:39.430Z,3.03
2023-02-24T02:45:47.703Z,3.10
2023-02-24T02:47:53.886Z,2.40
2023-02-24T02:50:00.631Z,2.22
2023-02-24T02:52:10.381Z,2.72
2023-02-24T02:54:19.111Z,2.33
2023-02-24T02:56:25.575Z,2.15
2023-02-24T02:58:32.847Z,2.58
2023-02-24T03:00:42.029Z,2.45
2023-02-24T03:02:48.387Z,2.20
2023-02-24T03:04:53.959Z,3.50
2023-02-24T03:07:00.723Z,2.95
2023-02-24T03:09:12.294Z,2.35
2023-02-24T03:11:16.970Z,2.67
2023-02-24T03:13:22.600Z,2.10
2023-02-24T03:15:28.516Z,2.15
2023-02-24T03:17:41.331Z,1.35
2023-02-24T03:19:45.315Z,2.65
2023-02-24T03:21:52.741Z,2.20
2023-02-24T03:23:56.869Z,2.13
2023-02-24T03:26:08.952Z,1.95
2023-02-24T03:28:17.500Z,1.90
2023-02-24T03:30:26.998Z,2.88
2023-02-24T03:32:34.050Z,2.03
2023-02-24T03:34:42.932Z,2.78
2023-02-24T03:36:47.570Z,3.08
2023-02-24T03:38:52.666Z,1.95
2023-02-24T03:40:57.314Z,2.13
2023-02-24T03:43:08.991Z,1.83
2023-02-24T03:45:13.097Z,2.25
2023-02-24T03:47:20.372Z,2.25
2023-02-24T03:49:25.399Z,2.10
2023-02-24T03:51:29.504Z,2.17
2023-02-24T03:53:39.073Z,3.17
2023-02-24T03:55:58.742Z,2.90
2023-02-24T03:58:12.995Z,2.10
2023-02-24T04:00:22.840Z,2.55
2023-02-24T04:02:32.753Z,2.85
2023-02-24T04:04:41.648Z,2.35
2023-02-24T04:07:06.805Z,2.50
2023-02-24T04:09:15.526Z,2.28
2023-02-24T04:11:31.778Z,2.42
2023-02-24T04:13:39.980Z,1.88
2023-02-24T04:15:56.465Z,1.95
2023-02-24T04:18:02.281Z,2.15
2023-02-24T04:20:15.437Z,1.65
2023-02-24T04:22:24.670Z,2.30
2023-02-24T04:24:31.089Z,2.17
2023-02-24T04:26:36.474Z,1.92
2023-02-24T04:28:42.240Z,2.20
2023-02-24T04:30:49.397Z,1.88
2023-02-24T04:32:53.556Z,1.73
2023-02-24T04:35:04.784Z,2.13
2023-02-24T04:37:10.169Z,1.40
2023-02-24T04:39:16.425Z,2.13
2023-02-24T04:41:22.990Z,2.25
2023-02-24T04:43:27.309Z,2.05
2023-02-24T04:45:32.848Z,2.35
2023-02-24T04:47:37.210Z,2.17
2023-02-24T04:49:41.978Z,1.98
2023-02-24T04:51:46.667Z,3.10
2023-02-24T04:53:55.334Z,2.00
2023-02-24T04:56:08.050Z,2.17
2023-02-24T04:58:12.576Z,2.03
2023-02-24T05:00:22.368Z,2.10
2023-02-24T05:02:27.814Z,1.63
2023-02-24T05:04:31.967Z,2.70
2023-02-24T05:06:36.125Z,1.60
2023-02-24T05:08:40.795Z,1.55
2023-02-24T05:10:45.676Z,2.30
2023-02-24T05:12:50.364Z,2.00
2023-02-24T05:14:54.706Z,1.95
2023-02-24T05:17:00.435Z,2.80
2023-02-24T05:19:23.220Z,1.63
2023-02-24T05:21:36.464Z,1.90
2023-02-24T05:23:44.225Z,1.98
2023-02-24T05:25:48.562Z,1.90
2023-02-24T05:27:52.565Z,2.25
2023-02-24T05:29:56.808Z,2.45
2023-02-24T05:32:01.206Z,1.95
2023-02-24T05:34:08.073Z,1.80
2023-02-24T05:36:15.667Z,1.80
2023-02-24T05:38:20.487Z,1.65
2023-02-24T05:40:25.341Z,1.95
2023-02-24T05:42:34.460Z,1.60
2023-02-24T05:44:38.626Z,2.13
2023-02-24T05:46:44.547Z,2.10
2023-02-24T05:48:52.020Z,2.05
2023-02-24T05:50:57.500Z,2.22
2023-02-24T05:53:03.323Z,1.85
2023-02-24T05:55:13.989Z,1.58
2023-02-24T05:59:24.402Z,1.80
2023-02-24T06:01:30.264Z,1.92
2023-02-24T06:03:35.648Z,2.20
2023-02-24T06:05:42.651Z,1.73
2023-02-24T06:07:49.164Z,1.40
2023-02-24T06:09:56.427Z,1.83
2023-02-24T06:12:02.529Z,1.58
2023-02-24T06:14:07.282Z,1.65
2023-02-24T06:16:13.134Z,2.10
2023-02-24T06:18:17.423Z,1.88
2023-02-24T06:20:22.219Z,1.80
2023-02-24T06:22:27.105Z,1.70
2023-02-24T06:24:33.590Z,2.72
2023-02-24T06:26:43.296Z,1.92
2023-02-24T06:28:48.049Z,1.83
2023-02-24T06:30:52.260Z,1.77
2023-02-24T06:32:57.195Z,1.98
2023-02-24T06:35:01.779Z,1.88
2023-02-24T06:37:07.193Z,1.77
2023-02-24T06:39:14.485Z,1.70
2023-02-24T06:41:20.378Z,2.35
2023-02-24T06:43:24.597Z,2.35
2023-02-24T06:45:30.487Z,1.92
2023-02-24T06:47:34.535Z,2.03
2023-02-24T06:49:38.583Z,1.70
2023-02-24T06:51:43.482Z,2.05
2023-02-24T06:53:47.543Z,1.40
2023-02-24T06:55:51.831Z,1.58
2023-02-24T06:57:58.731Z,1.52
2023-02-24T07:00:16.926Z,2.40
2023-02-24T07:02:21.005Z,1.73
2023-02-24T07:04:28.233Z,1.52
2023-02-24T07:06:34.430Z,1.98
2023-02-24T07:08:39.100Z,1.42
2023-02-24T07:10:43.390Z,1.73
2023-02-24T07:12:47.485Z,1.85
2023-02-24T07:14:53.237Z,1.98
2023-02-24T07:16:58.238Z,1.70
2023-02-24T07:19:04.446Z,1.98
2023-02-24T07:21:11.525Z,1.63
2023-02-24T07:23:15.769Z,3.30
2023-02-24T07:25:33.116Z,1.45
2023-02-24T07:27:37.358Z,1.90
2023-02-24T07:29:41.446Z,1.60
2023-02-24T07:31:48.828Z,1.50
2023-02-24T07:33:55.639Z,2.53
2023-02-24T07:35:59.941Z,1.63
2023-02-24T07:38:05.576Z,1.77
2023-02-24T07:40:17.208Z,1.90
2023-02-24T07:42:21.252Z,2.75
2023-02-24T07:44:33.020Z,2.17
2023-02-24T07:46:37.188Z,2.28
2023-02-24T07:48:42.865Z,1.73
2023-02-24T07:50:46.881Z,3.13
2023-02-24T07:52:51.672Z,1.60
2023-02-24T07:54:58.590Z,1.95
2023-02-24T07:57:28.889Z,2.40
2023-02-24T07:59:34.551Z,1.80
2023-02-24T08:01:39.971Z,1.98
2023-02-24T08:03:45.826Z,1.48
2023-02-24T08:05:49.960Z,2.08
2023-02-24T08:07:57.045Z,1.88
2023-02-24T08:10:24.404Z,2.13
2023-02-24T08:12:30.604Z,2.75
2023-02-24T08:14:35.024Z,1.60
2023-02-24T08:16:40.619Z,2.05
2023-02-24T08:18:48.950Z,2.45
2023-02-24T08:21:04.677Z,1.92
2023-02-24T08:23:10.803Z,2.15
2023-02-24T08:25:18.493Z,1.67
2023-02-24T08:27:25.770Z,1.42
2023-02-24T08:29:31.443Z,1.85
2023-02-24T08:31:35.686Z,1.65
2023-02-24T08:33:39.796Z,2.08
2023-02-24T08:35:45.568Z,2.15
2023-02-24T08:37:52.118Z,2.13
2023-02-24T08:39:56.640Z,2.15
2023-02-24T08:42:00.625Z,1.40
2023-02-24T08:44:04.825Z,2.17
2023-02-24T08:46:19.229Z,2.35
2023-02-24T08:48:32.413Z,1.95
2023-02-24T08:50:39.947Z,2.92
2023-02-24T08:53:03.805Z,1.83
2023-02-24T08:55:10.619Z,2.15
2023-02-24T08:57:16.861Z,1.33
2023-02-24T08:59:49.995Z,2.05
2023-02-24T09:02:04.296Z,1.98
2023-02-24T09:04:10.749Z,2.17
2023-02-24T09:06:16.860Z,2.53
2023-02-24T09:08:24.086Z,2.40
2023-02-24T09:10:28.532Z,1.92
2023-02-24T09:12:32.731Z,1.98
2023-02-24T09:14:37.809Z,2.03
2023-02-24T09:16:52.381Z,1.90
2023-02-24T09:19:10.277Z,1.92
2023-02-24T09:21:37.604Z,1.98
2023-02-24T09:23:50.623Z,2.38
2023-02-24T09:26:14.308Z,2.00
2023-02-24T09:28:48.544Z,1.90
2023-02-24T09:30:56.395Z,2.33
2023-02-24T09:33:02.102Z,2.40
2023-02-24T09:35:06.635Z,1.60
2023-02-24T09:37:24.786Z,2.03
2023-02-24T09:39:54.700Z,1.75
2023-02-24T09:42:21.761Z,2.30
2023-02-24T09:44:33.955Z,3.42
2023-02-24T09:46:53.859Z,1.40
2023-02-24T09:49:05.288Z,2.55
2023-02-24T09:51:10.518Z,1.40
2023-02-24T09:53:18.561Z,1.77
2023-02-24T09:55:30.228Z,1.23
2023-02-24T09:57:37.519Z,1.92
2023-02-24T10:04:35.300Z,1.52
2023-02-24T10:06:41.623Z,1.65
2023-02-24T10:08:51.338Z,1.85
2023-02-24T10:30:17.173Z,1.88
2023-02-24T10:32:47.037Z,1.60
2023-02-24T10:34:51.489Z,1.10
2023-02-24T10:36:57.505Z,1.63
2023-02-24T10:39:08.421Z,1.40
2023-02-24T10:41:12.678Z,1.83
2023-02-24T10:43:19.510Z,1.75
2023-02-24T10:45:26.056Z,1.60
2023-02-24T10:47:31.901Z,1.50
2023-02-24T10:49:42.926Z,1.60
2023-02-24T10:51:54.677Z,1.42
2023-02-24T10:54:34.009Z,1.17
2023-02-24T10:56:44.692Z,1.67
2023-02-24T10:59:17.177Z,2.10
2023-02-24T11:01:40.596Z,1.70
2023-02-24T11:04:54.947Z,1.60
2023-02-24T11:07:25.863Z,1.58
2023-02-24T11:10:11.349Z,1.90
2023-02-24T11:12:38.726Z,1.90
2023-02-24T11:17:50.979Z,2.45
2023-02-24T11:23:09.993Z,1.35
2023-02-24T11:25:25.024Z,1.85
2023-02-24T11:28:26.415Z,1.80
2023-02-24T11:30:43.882Z,1.60
2023-02-24T11:33:00.054Z,1.88
2023-02-24T11:35:09.466Z,2.42
2023-02-24T11:37:29.807Z,1.40
2023-02-24T11:40:42.248Z,1.45
2023-02-24T11:42:52.117Z,2.13
2023-02-24T11:45:00.935Z,1.63
2023-02-24T11:47:07.432Z,1.80
2023-02-24T11:49:22.819Z,1.70
2023-02-24T11:51:29.472Z,1.70
2023-02-24T11:53:41.144Z,1.92
2023-02-24T11:56:12.409Z,1.50
2023-02-24T11:59:07.366Z,1.77
2023-02-24T12:01:15.949Z,1.77
2023-02-24T12:03:26.615Z,2.20
2023-02-24T12:05:37.100Z,1.63
2023-02-24T12:14:53.616Z,1.75
2023-02-24T12:19:33.237Z,1.30
2023-02-24T12:21:39.948Z,2.05
2023-02-24T12:23:46.577Z,2.13
2023-02-24T12:29:21.965Z,1.73
2023-02-24T12:31:57.316Z,1.40
2023-02-24T12:42:08.834Z,2.00
2023-02-24T12:44:24.245Z,1.60
2023-02-24T12:47:43.575Z,1.77
2023-02-24T12:51:42.869Z,1.40
2023-02-24T12:59:57.966Z,1.08
2023-02-24T13:02:07.482Z,2.13
2023-02-24T13:04:38.573Z,1.73
2023-02-24T13:06:58.143Z,1.67
2023-02-24T13:09:06.036Z,1.75
2023-02-24T13:11:16.362Z,1.40
2023-02-24T13:13:24.742Z,1.95
2023-02-24T13:15:31.347Z,2.30
2023-02-24T13:17:35.345Z,1.30
2023-02-24T13:19:41.426Z,1.83
2023-02-24T13:21:45.446Z,1.80
2023-02-24T13:23:57.425Z,1.75
2023-02-24T13:26:33.806Z,2.67
2023-02-24T13:28:44.777Z,2.35
2023-02-24T13:30:59.239Z,1.63
2023-02-24T13:33:07.168Z,1.48
2023-02-24T13:35:35.173Z,1.50
2023-02-24T13:37:40.500Z,1.30
2023-02-24T13:39:46.393Z,2.03
2023-02-24T13:41:50.701Z,2.20
2023-02-24T13:43:57.913Z,1.70
2023-02-24T13:46:03.522Z,2.03
2023-02-24T13:48:43.963Z,1.30
2023-02-24T13:51:05.511Z,1.92
2023-02-24T13:53:33.273Z,1.98
2023-02-24T13:55:58.642Z,1.50
2023-02-24T13:58:29.944Z,1.70
2023-02-24T14:01:15.559Z,1.17
2023-02-24T14:03:32.061Z,1.45
2023-02-24T14:05:37.819Z,1.20
2023-02-24T14:07:43.629Z,1.55
2023-02-24T14:09:49.661Z,1.42
2023-02-24T14:16:09.222Z,1.13
2023-02-24T14:18:19.941Z,2.13
2023-02-24T14:20:25.649Z,1.20
2023-02-24T14:22:29.617Z,1.55
2023-02-24T14:24:35.183Z,1.92
2023-02-24T14:26:44.094Z,1.83
2023-02-24T14:33:42.131Z,2.20
2023-02-24T14:35:51.832Z,1.95
2023-02-24T14:38:07.137Z,1.75
2023-02-24T14:40:40.822Z,1.70
2023-02-24T14:42:55.734Z,1.83
2023-02-24T14:47:06.580Z,1.75
2023-02-24T14:56:57.384Z,1.75
2023-02-24T14:59:03.304Z,1.58
2023-02-24T15:01:08.761Z,1.65
2023-02-24T15:03:15.484Z,2.33
2023-02-24T15:09:48.040Z,1.42
2023-02-24T15:13:10.778Z,1.58
2023-02-24T15:15:40.277Z,1.92
2023-02-24T15:17:44.498Z,1.42
2023-02-24T15:19:54.658Z,2.53
2023-02-24T15:21:59.167Z,1.42
2023-02-24T15:24:04.379Z,1.42
2023-02-24T15:26:09.632Z,1.50
2023-02-24T15:28:31.103Z,1.23
2023-02-24T15:30:57.360Z,1.45
2023-02-24T15:33:06.963Z,2.05
2023-02-24T15:35:23.087Z,1.63
2023-02-24T15:37:30.011Z,2.47
2023-02-24T15:39:34.746Z,1.17
2023-02-24T15:41:41.102Z,1.67
2023-02-24T15:43:50.189Z,1.30
2023-02-24T15:46:27.130Z,1.25
2023-02-24T15:48:31.607Z,1.40
2023-02-24T15:50:35.661Z,1.42
2023-02-24T15:52:51.873Z,1.95
2023-02-24T15:54:56.602Z,1.85
2023-02-24T15:57:00.958Z,1.88
2023-02-24T15:59:41.730Z,1.35
2023-02-24T16:01:53.626Z,1.25
2023-02-24T16:04:00.803Z,1.85
2023-02-24T16:06:34.125Z,1.30
2023-02-24T16:12:50.498Z,1.58
2023-02-24T16:14:56.809Z,1.40
2023-02-24T16:17:03.251Z,1.48
2023-02-24T16:19:07.300Z,1.80
2023-02-24T16:21:11.456Z,1.23
2023-02-24T16:23:15.821Z,1.27
2023-02-24T16:25:19.985Z,1.33
2023-02-24T16:27:25.984Z,1.30
2023-02-24T16:29:30.085Z,1.70
2023-02-24T16:31:34.347Z,2.22
2023-02-24T16:33:53.547Z,1.92
2023-02-24T16:35:58.347Z,1.60
2023-02-24T16:38:02.479Z,1.85
2023-02-24T16:40:17.114Z,1.15
2023-02-24T16:42:22.004Z,1.05
2023-02-24T16:44:26.127Z,1.00
2023-02-24T16:46:30.522Z,1.95
2023-02-24T16:48:37.383Z,1.30
2023-02-24T16:50:43.828Z,1.17
2023-02-24T16:52:47.858Z,1.27
2023-02-24T16:54:51.949Z,1.75
2023-02-24T16:56:56.131Z,1.65
2023-02-24T16:59:00.131Z,2.33
2023-02-24T17:01:05.263Z,1.35
2023-02-24T17:03:19.470Z,1.50
2023-02-24T17:05:27.116Z,1.25
2023-02-24T17:07:39.145Z,1.63
2023-02-24T17:09:43.186Z,1.15
2023-02-24T17:11:47.154Z,1.35
2023-02-24T17:13:51.216Z,1.83
2023-02-24T17:16:00.177Z,1.42
2023-02-24T17:18:06.369Z,1.45
2023-02-24T17:20:12.982Z,1.92
2023-02-24T17:22:17.642Z,1.23
2023-02-24T17:24:23.209Z,1.33
2023-02-24T17:26:27.278Z,1.50
2023-02-24T17:28:31.470Z,1.70
2023-02-24T17:30:36.360Z,1.30
2023-02-24T17:32:40.491Z,1.23
2023-02-24T17:34:44.591Z,2.17
2023-02-24T17:36:48.915Z,1.85
2023-02-24T17:38:53.041Z,2.28
2023-02-24T17:40:58.476Z,1.90
2023-02-24T17:43:02.432Z,1.48
2023-02-24T17:45:07.962Z,1.80
2023-02-24T17:47:12.290Z,1.45
2023-02-24T17:49:16.326Z,1.63
2023-02-24T17:51:22.364Z,1.40
2023-02-24T17:53:26.883Z,6.88
2023-02-24T17:55:30.941Z,37.22
2023-02-24T17:57:36.411Z,21.27
2023-02-24T17:59:40.425Z,25.23
2023-02-24T18:01:44.402Z,24.23
2023-02-24T18:03:48.587Z,26.90
2023-02-24T18:06:00.133Z,22.75
2023-02-24T18:08:04.271Z,26.98
2023-02-24T18:10:12.430Z,22.42
2023-02-24T18:12:20.807Z,22.25
2023-02-24T18:14:26.322Z,16.42
2023-02-24T18:16:32.820Z,20.20
2023-02-24T18:18:36.872Z,18.80
2023-02-24T18:20:43.310Z,20.98
2023-02-24T18:22:47.746Z,17.33
2023-02-24T18:24:51.880Z,18.05
2023-02-24T18:26:55.851Z,18.80
2023-02-24T18:29:01.445Z,20.10
2023-02-24T18:31:13.173Z,19.27
2023-02-24T18:33:17.304Z,18.02
2023-02-24T18:35:21.980Z,20.52
2023-02-24T18:37:26.317Z,18.52
2023-02-24T18:39:30.562Z,16.40
2023-02-24T18:41:34.563Z,17.63
2023-02-24T18:43:38.649Z,16.75
2023-02-24T18:45:42.632Z,15.70
2023-02-24T18:47:48.037Z,16.65
2023-02-24T18:49:52.022Z,17.05
2023-02-24T18:51:56.025Z,16.60
2023-02-24T18:54:00.348Z,18.15
2023-02-24T18:56:05.142Z,17.30
2023-02-24T18:58:09.108Z,16.48
2023-02-24T19:00:15.165Z,16.35
2023-02-24T19:02:19.538Z,15.82
2023-02-24T19:04:25.065Z,15.55
2023-02-24T19:06:31.622Z,15.77
2023-02-24T19:08:35.662Z,15.02
2023-02-24T19:10:40.423Z,16.30
2023-02-24T19:12:44.488Z,16.52
2023-02-24T19:14:52.067Z,15.15
2023-02-24T19:16:56.061Z,17.30
2023-02-24T19:19:00.823Z,16.40
2023-02-24T19:21:08.255Z,15.10
2023-02-24T19:23:12.250Z,15.00
2023-02-24T19:25:16.541Z,16.15
2023-02-24T19:27:20.520Z,14.57
2023-02-24T19:29:26.409Z,15.30
2023-02-24T19:31:32.992Z,14.43
2023-02-24T19:33:37.073Z,14.82
2023-02-24T19:35:41.801Z,14.88
2023-02-24T19:37:48.809Z,17.17
2023-02-24T19:39:52.811Z,15.65
2023-02-24T19:41:57.521Z,13.18
2023-02-24T19:44:01.532Z,13.20
2023-02-24T19:46:07.163Z,14.15
2023-02-24T19:48:11.419Z,14.18
2023-02-24T19:50:15.853Z,14.10
2023-02-24T19:52:19.840Z,12.73
2023-02-24T19:54:25.229Z,13.38
2023-02-24T19:56:30.563Z,14.15
2023-02-24T19:58:34.644Z,13.45
2023-02-24T20:00:38.621Z,12.90
2023-02-24T20:02:42.737Z,12.82
2023-02-24T20:04:46.777Z,13.30
2023-02-24T20:06:51.192Z,13.60
2023-02-24T20:08:55.533Z,12.38
2023-02-24T20:11:01.641Z,14.25
2023-02-24T20:13:07.744Z,11.27
2023-02-24T20:15:13.626Z,12.73
2023-02-24T20:17:18.540Z,13.18
2023-02-24T20:19:23.696Z,12.18
2023-02-24T20:21:27.832Z,11.48
2023-02-24T20:23:33.342Z,13.63
2023-02-24T20:25:37.433Z,12.75
2023-02-24T20:27:42.865Z,13.73
2023-02-24T20:29:47.443Z,12.23
2023-02-24T20:31:51.678Z,12.00
2023-02-24T20:33:56.435Z,12.98
2023-02-24T20:36:00.573Z,12.60
2023-02-24T20:38:04.689Z,11.98
2023-02-24T20:40:12.481Z,12.10
2023-02-24T20:42:16.622Z,11.43
2023-02-24T20:44:22.143Z,11.52
2023-02-24T20:46:27.679Z,11.38
2023-02-24T20:48:31.843Z,11.82
2023-02-24T20:50:36.002Z,12.07
2023-02-24T20:52:40.334Z,10.68
2023-02-24T20:54:45.714Z,12.23
2023-02-24T20:56:49.921Z,11.43
2023-02-24T20:58:59.828Z,11.25
2023-02-24T21:01:05.677Z,9.73
2023-02-24T21:03:12.268Z,11.60
2023-02-24T21:05:20.394Z,10.95
2023-02-24T21:07:24.551Z,11.40
2023-02-24T21:09:28.825Z,10.95
2023-02-24T21:11:33.076Z,12.52
2023-02-24T21:13:37.241Z,12.43
2023-02-24T21:15:41.310Z,11.70
2023-02-24T21:17:46.800Z,11.65
2023-02-24T21:19:50.822Z,11.93
2023-02-24T21:21:54.884Z,9.63
2023-02-24T21:23:58.993Z,10.13
2023-02-24T21:26:03.126Z,10.13
2023-02-24T21:28:07.152Z,12.02
2023-02-24T21:30:13.009Z,9.25
2023-02-24T21:32:17.116Z,13.00
2023-02-24T21:34:22.707Z,10.70
2023-02-24T21:36:28.013Z,13.75
2023-02-24T21:38:33.997Z,12.27
2023-02-24T21:40:38.207Z,11.73
2023-02-24T21:42:44.439Z,11.32
2023-02-24T21:44:50.957Z,12.15
2023-02-24T21:46:55.588Z,11.48
2023-02-24T21:49:00.980Z,11.35
2023-02-24T21:51:09.435Z,11.10
2023-02-24T21:53:14.092Z,11.88
2023-02-24T21:55:19.220Z,12.52
2023-02-24T21:57:23.228Z,10.27
2023-02-24T21:59:27.444Z,11.18
2023-02-24T22:01:33.721Z,11.55
2023-02-24T22:03:38.101Z,12.70
2023-02-24T22:05:42.176Z,10.57
2023-02-24T22:07:48.114Z,12.48
2023-02-24T22:09:52.139Z,11.68
2023-02-24T22:11:57.153Z,10.40
2023-02-24T22:14:01.273Z,11.23
2023-02-24T22:16:07.267Z,10.45
2023-02-24T22:18:11.357Z,10.73
2023-02-24T22:20:16.177Z,11.25
2023-02-24T22:22:20.259Z,11.15
2023-02-24T22:24:25.696Z,10.68
2023-02-24T22:26:30.274Z,10.65
2023-02-24T22:28:35.053Z,9.77
2023-02-24T22:30:39.389Z,10.73
2023-02-24T22:32:43.608Z,9.43
2023-02-24T22:34:47.651Z,10.65
2023-02-24T22:36:51.785Z,10.40
2023-02-24T22:38:56.551Z,9.27
2023-02-24T22:41:02.703Z,9.30
2023-02-24T22:43:07.460Z,9.02
2023-02-24T22:45:12.039Z,9.23
2023-02-24T22:47:16.857Z,11.60
2023-02-24T22:49:21.029Z,9.30
2023-02-24T22:51:25.537Z,9.13
2023-02-24T22:53:30.153Z,11.75
2023-02-24T22:55:34.182Z,9.52
2023-02-24T22:57:39.623Z,8.93
2023-02-24T22:59:43.793Z,10.05
2023-02-24T23:01:47.942Z,9.88
2023-02-24T23:03:52.180Z,10.48
2023-02-24T23:05:56.652Z,9.88
2023-02-24T23:08:03.339Z,10.60
2023-02-24T23:10:08.467Z,10.63
2023-02-24T23:12:15.251Z,10.52
2023-02-24T23:14:21.059Z,10.00
2023-02-24T23:16:27.365Z,9.88
2023-02-24T23:18:32.513Z,9.18
2023-02-24T23:20:38.768Z,8.40
2023-02-24T23:22:45.436Z,10.15
2023-02-24T23:24:50.822Z,9.98
2023-02-24T23:27:01.463Z,8.63
2023-02-24T23:29:09.044Z,8.63
2023-02-24T23:31:22.189Z,8.15
2023-02-24T23:33:26.283Z,9.25
2023-02-24T23:35:30.400Z,8.63
2023-02-24T23:37:34.559Z,8.48
2023-02-24T23:39:38.826Z,8.20
2023-02-24T23:41:43.454Z,8.48
2023-02-24T23:43:47.675Z,9.02
2023-02-24T23:45:51.745Z,8.25
2023-02-24T23:47:58.496Z,6.15
2023-02-24T23:50:02.488Z,8.20
2023-02-24T23:52:06.516Z,6.43
2023-02-24T23:54:12.983Z,6.43
2023-02-24T23:56:18.366Z,6.95
2023-02-24T23:58:22.325Z,8.13
